createdAt,value
2018-06-24T00:01:09.886Z,68.20
2018-06-24T00:03:40.173Z,69.40
2018-06-24T00:06:11.267Z,68.50
2018-06-24T00:08:42.286Z,68.30
2018-06-24T00:11:12.832Z,68.30
2018-06-24T00:13:43.229Z,68.60
2018-06-24T00:16:13.141Z,68.60
2018-06-24T00:18:43.076Z,68.60
2018-06-24T00:21:12.990Z,68.80
2018-06-24T00:23:42.968Z,69.40
2018-06-24T00:26:13.328Z,69.70
2018-06-24T00:28:43.491Z,70.00
2018-06-24T00:31:13.720Z,69.20
2018-06-24T00:33:45.588Z,69.80
2018-06-24T00:36:15.428Z,69.20
2018-06-24T00:38:46.040Z,68.70
2018-06-24T00:41:16.442Z,68.90
2018-06-24T00:43:46.598Z,68.70
2018-06-24T00:46:18.148Z,68.50
2018-06-24T00:48:48.005Z,68.50
2018-06-24T00:51:18.254Z,68.30
2018-06-24T00:53:48.277Z,69.40
2018-06-24T00:56:18.295Z,68.10
2018-06-24T00:58:48.259Z,68.60
2018-06-24T01:01:18.422Z,68.50
2018-06-24T01:03:48.429Z,69.00
2018-06-24T01:06:18.391Z,68.50
2018-06-24T01:08:48.165Z,68.60
2018-06-24T01:11:19.444Z,68.50
2018-06-24T01:16:19.495Z,68.50
2018-06-24T01:18:50.799Z,68.40
2018-06-24T01:21:20.745Z,68.30
2018-06-24T01:23:50.829Z,68.20
2018-06-24T01:26:21.083Z,68.20
2018-06-24T01:28:51.220Z,68.30
2018-06-24T01:31:21.131Z,68.50
2018-06-24T01:33:51.165Z,68.50
2018-06-24T01:36:21.279Z,68.40
2018-06-24T01:41:21.685Z,68.30
2018-06-24T01:43:57.795Z,68.60
2018-06-24T01:46:33.795Z,68.90
2018-06-24T01:49:05.774Z,69.40
2018-06-24T01:51:36.829Z,70.30
2018-06-24T01:54:17.753Z,70.10
2018-06-24T01:56:48.574Z,69.10
2018-06-24T01:59:21.020Z,70.70
2018-06-24T02:04:21.427Z,68.80
2018-06-24T02:06:59.715Z,70.10
2018-06-24T02:09:30.006Z,69.30
2018-06-24T02:12:02.700Z,69.30
2018-06-24T02:14:42.533Z,69.40
2018-06-24T02:17:14.688Z,70.20
2018-06-24T02:20:03.825Z,70.60
2018-06-24T02:22:35.513Z,71.50
2018-06-24T02:25:11.727Z,71.40
2018-06-24T02:27:44.088Z,71.60
2018-06-24T02:30:16.393Z,71.70
2018-06-24T02:33:15.221Z,72.30
2018-06-24T02:35:52.752Z,72.50
2018-06-24T02:38:24.551Z,72.40
2018-06-24T02:40:58.125Z,72.10
2018-06-24T02:43:32.402Z,73.20
2018-06-24T02:46:10.336Z,72.80
2018-06-24T02:48:41.378Z,72.60
2018-06-24T02:51:15.911Z,73.20
2018-06-24T02:53:48.474Z,73.30
2018-06-24T02:56:20.450Z,72.80
2018-06-24T02:58:59.325Z,72.60
2018-06-24T03:01:41.371Z,74.40
2018-06-24T03:04:17.418Z,73.80
2018-06-24T03:06:50.476Z,75.40
2018-06-24T03:09:27.058Z,75.80
2018-06-24T03:12:03.831Z,75.10
2018-06-24T03:14:51.464Z,74.20
2018-06-24T03:17:25.335Z,73.80
2018-06-24T03:19:57.742Z,73.80
2018-06-24T03:22:31.255Z,73.60
2018-06-24T03:25:04.048Z,73.70
2018-06-24T03:27:39.972Z,73.30
2018-06-24T03:30:11.284Z,73.80
2018-06-24T03:32:44.868Z,73.90
2018-06-24T03:35:16.936Z,73.60
2018-06-24T03:37:48.290Z,73.70
2018-06-24T03:40:23.757Z,73.30
2018-06-24T03:42:55.318Z,72.40
2018-06-24T03:45:58.650Z,74.20
2018-06-24T03:48:32.079Z,74.20
2018-06-24T03:51:03.236Z,74.10
2018-06-24T03:53:34.462Z,75.30
2018-06-24T03:56:05.909Z,76.00
2018-06-24T03:58:36.993Z,75.80
2018-06-24T04:01:10.382Z,75.00
2018-06-24T04:03:44.375Z,74.60
2018-06-24T04:06:14.753Z,73.60
2018-06-24T04:08:45.598Z,73.20
2018-06-24T04:13:55.739Z,73.10
2018-06-24T04:16:26.996Z,73.50
2018-06-24T04:19:05.331Z,73.20
2018-06-24T04:21:41.342Z,72.60
2018-06-24T04:24:11.138Z,71.20
2018-06-24T04:26:42.974Z,70.80
2018-06-24T04:29:16.843Z,71.00
2018-06-24T04:31:47.838Z,70.30
2018-06-24T04:34:24.297Z,69.80
2018-06-24T04:36:57.317Z,69.40
2018-06-24T04:39:29.454Z,68.80
2018-06-24T04:42:00.903Z,71.60
2018-06-24T04:47:15.854Z,69.70
2018-06-24T04:49:50.061Z,69.70
2018-06-24T04:52:24.448Z,69.80
2018-06-24T04:57:47.726Z,69.40
2018-06-24T05:00:20.506Z,68.90
2018-06-24T05:02:51.544Z,65.80
2018-06-24T05:05:22.192Z,62.90
2018-06-24T05:07:53.521Z,63.00
2018-06-24T05:10:27.004Z,61.50
2018-06-24T05:13:04.563Z,58.70
2018-06-24T05:15:39.355Z,56.70
2018-06-24T05:18:12.278Z,56.90
2018-06-24T05:20:43.706Z,57.60
2018-06-24T05:23:15.049Z,58.50
2018-06-24T05:25:45.146Z,56.00
2018-06-24T05:28:15.869Z,55.00
2018-06-24T05:30:48.511Z,54.40
2018-06-24T05:33:21.582Z,53.60
2018-06-24T05:35:52.741Z,54.60
2018-06-24T05:38:27.930Z,54.30
2018-06-24T05:41:02.286Z,53.10
2018-06-24T05:43:33.861Z,51.30
2018-06-24T05:46:04.495Z,55.90
2018-06-24T05:48:35.852Z,59.60
2018-06-24T05:51:06.613Z,58.40
2018-06-24T05:53:38.253Z,58.00
2018-06-24T05:56:10.487Z,61.30
2018-06-24T05:58:42.327Z,61.20
2018-06-24T06:01:16.661Z,61.60
2018-06-24T06:03:49.605Z,61.90
2018-06-24T06:06:23.370Z,62.30
2018-06-24T06:08:55.387Z,61.50
2018-06-24T06:11:27.654Z,62.10
2018-06-24T06:13:57.585Z,62.20
2018-06-24T06:16:32.818Z,61.40
2018-06-24T06:19:02.924Z,62.60
2018-06-24T06:21:39.541Z,62.30
2018-06-24T06:24:14.096Z,61.40
2018-06-24T06:26:48.456Z,60.20
2018-06-24T06:29:20.516Z,56.40
2018-06-24T06:31:54.328Z,54.10
2018-06-24T06:34:27.243Z,52.20
2018-06-24T06:36:58.450Z,53.00
2018-06-24T06:39:29.656Z,53.20
2018-06-24T06:42:04.533Z,55.40
2018-06-24T06:47:08.143Z,58.50
2018-06-24T06:49:41.770Z,58.70
2018-06-24T06:52:15.484Z,61.80
2018-06-24T06:54:55.334Z,63.00
2018-06-24T06:57:26.063Z,62.80
2018-06-24T06:59:56.467Z,61.60
2018-06-24T07:02:27.978Z,58.20
2018-06-24T07:05:05.013Z,58.20
2018-06-24T07:07:37.746Z,59.80
2018-06-24T07:10:14.869Z,61.20
2018-06-24T07:12:50.098Z,58.40
2018-06-24T07:15:26.615Z,57.60
2018-06-24T07:17:59.445Z,58.20
2018-06-24T07:20:31.737Z,57.80
2018-06-24T07:23:02.319Z,58.40
2018-06-24T07:26:37.341Z,58.50
2018-06-24T07:29:10.677Z,59.40
2018-06-24T07:31:46.469Z,58.20
2018-06-24T07:34:16.584Z,60.00
2018-06-24T07:36:49.627Z,58.60
2018-06-24T07:39:21.720Z,59.80
2018-06-24T07:44:31.702Z,60.70
2018-06-24T07:47:05.401Z,59.10
2018-06-24T07:49:38.930Z,57.70
2018-06-24T07:52:11.645Z,57.50
2018-06-24T07:54:43.364Z,56.80
2018-06-24T07:57:14.342Z,58.30
2018-06-24T07:59:52.204Z,56.20
2018-06-24T08:02:31.685Z,57.10
2018-06-24T08:05:04.841Z,56.40
2018-06-24T08:07:36.550Z,56.70
2018-06-24T08:10:10.263Z,55.60
2018-06-24T08:12:43.572Z,54.60
2018-06-24T08:15:17.065Z,56.40
2018-06-24T08:17:51.079Z,57.10
2018-06-24T08:20:24.929Z,57.00
2018-06-24T08:22:56.655Z,57.40
2018-06-24T08:25:29.543Z,58.40
2018-06-24T08:28:10.329Z,60.30
2018-06-24T08:30:48.118Z,59.50
2018-06-24T08:33:20.441Z,57.70
2018-06-24T08:35:53.473Z,57.80
2018-06-24T08:38:27.842Z,56.00
2018-06-24T08:41:02.698Z,58.90
2018-06-24T08:43:37.690Z,59.30
2018-06-24T08:46:12.896Z,60.10
2018-06-24T08:48:50.101Z,58.00
2018-06-24T08:51:26.381Z,57.30
2018-06-24T08:54:00.831Z,60.20
2018-06-24T08:56:34.683Z,61.40
2018-06-24T08:59:08.037Z,63.00
2018-06-24T09:01:48.801Z,63.60
2018-06-24T09:04:25.359Z,64.20
2018-06-24T09:06:58.328Z,63.30
2018-06-24T09:12:09.913Z,63.30
2018-06-24T09:14:56.651Z,62.30
2018-06-24T09:17:32.790Z,62.60
2018-06-24T09:20:05.693Z,61.30
2018-06-24T09:22:39.975Z,62.80
2018-06-24T09:25:17.117Z,63.50
2018-06-24T09:28:10.747Z,61.60
2018-06-24T09:30:43.157Z,60.50
2018-06-24T09:33:16.439Z,61.40
2018-06-24T09:35:49.904Z,60.20
2018-06-24T09:38:24.461Z,60.70
2018-06-24T09:40:57.796Z,60.20
2018-06-24T09:43:30.700Z,61.70
2018-06-24T09:46:05.443Z,59.90
2018-06-24T09:48:39.729Z,58.40
2018-06-24T09:51:27.364Z,57.60
2018-06-24T09:54:05.638Z,56.10
2018-06-24T09:57:01.110Z,54.80
2018-06-24T09:59:36.731Z,54.80
2018-06-24T10:02:15.199Z,53.40
2018-06-24T10:04:47.300Z,54.70
2018-06-24T10:07:55.574Z,55.70
2018-06-24T10:10:29.487Z,56.90
2018-06-24T10:13:03.797Z,55.30
2018-06-24T10:15:41.608Z,53.40
2018-06-24T10:18:15.429Z,50.40
2018-06-24T10:20:48.740Z,51.80
2018-06-24T10:23:22.468Z,54.60
2018-06-24T10:26:08.120Z,53.50
2018-06-24T10:29:00.556Z,53.10
2018-06-24T10:31:51.993Z,52.50
2018-06-24T10:37:42.018Z,50.30
2018-06-24T10:40:31.181Z,51.00
2018-06-24T10:43:35.031Z,52.90
2018-06-24T10:46:11.733Z,52.10
2018-06-24T10:48:46.117Z,50.90
2018-06-24T10:51:24.063Z,50.50
2018-06-24T10:54:20.741Z,50.50
2018-06-24T10:57:01.354Z,50.10
2018-06-24T10:59:53.784Z,49.00
2018-06-24T11:02:40.601Z,49.00
2018-06-24T11:05:25.381Z,50.60
2018-06-24T11:08:04.664Z,49.40
2018-06-24T11:11:13.254Z,47.20
2018-06-24T11:16:35.396Z,47.40
2018-06-24T11:19:12.600Z,49.30
2018-06-24T11:21:47.442Z,50.30
2018-06-24T11:24:21.961Z,51.50
2018-06-24T11:27:00.829Z,52.60
2018-06-24T11:29:44.930Z,52.50
2018-06-24T11:32:23.464Z,54.50
2018-06-24T11:35:11.898Z,55.20
2018-06-24T11:37:49.903Z,55.70
2018-06-24T11:40:56.680Z,55.60
2018-06-24T11:43:34.026Z,55.70
2018-06-24T11:46:40.814Z,54.90
2018-06-24T11:49:37.512Z,52.50
2018-06-24T11:55:11.774Z,53.30
2018-06-24T11:57:59.340Z,54.00
2018-06-24T12:00:37.323Z,52.80
2018-06-24T12:03:18.368Z,53.80
2018-06-24T12:06:12.346Z,53.90
2018-06-24T12:08:46.697Z,54.00
2018-06-24T12:11:22.514Z,53.50
2018-06-24T12:14:13.622Z,53.20
2018-06-24T12:17:04.842Z,52.40
2018-06-24T12:19:43.454Z,51.70
2018-06-24T12:22:41.437Z,52.80
2018-06-24T12:25:22.073Z,52.90
2018-06-24T12:27:55.120Z,51.00
2018-06-24T12:30:29.899Z,50.60
2018-06-24T12:33:04.404Z,51.40
2018-06-24T12:41:02.594Z,51.20
2018-06-24T12:43:41.493Z,52.00
2018-06-24T12:49:15.802Z,51.80
2018-06-24T12:51:48.652Z,52.30
2018-06-24T12:54:36.542Z,51.50
2018-06-24T12:57:22.002Z,52.30
2018-06-24T12:59:55.735Z,52.80
2018-06-24T13:02:32.166Z,52.70
2018-06-24T13:05:14.409Z,54.50
2018-06-24T13:07:49.072Z,54.50
2018-06-24T13:13:07.860Z,53.50
2018-06-24T13:15:45.416Z,53.50
2018-06-24T13:18:33.797Z,52.30
2018-06-24T13:21:12.631Z,52.00
2018-06-24T13:23:57.495Z,51.80
2018-06-24T13:26:46.240Z,52.60
2018-06-24T13:29:24.824Z,53.40
2018-06-24T13:32:01.247Z,53.20
2018-06-24T13:34:43.046Z,51.60
2018-06-24T13:37:18.409Z,51.60
2018-06-24T13:39:52.504Z,50.90
2018-06-24T13:42:28.000Z,49.70
2018-06-24T13:45:00.622Z,49.80
2018-06-24T13:47:38.074Z,50.70
2018-06-24T13:50:16.377Z,50.30
2018-06-24T13:52:59.761Z,48.90
2018-06-24T13:55:37.694Z,48.60
2018-06-24T13:58:17.315Z,47.60
2018-06-24T14:00:54.492Z,46.80
2018-06-24T14:03:29.348Z,48.30
2018-06-24T14:06:07.310Z,49.00
2018-06-24T14:08:48.367Z,50.20
2018-06-24T14:11:21.901Z,50.00
2018-06-24T14:13:58.887Z,48.60
2018-06-24T14:16:36.803Z,47.80
2018-06-24T14:19:13.313Z,48.00
2018-06-24T14:22:05.297Z,49.60
2018-06-24T14:24:41.633Z,47.90
2018-06-24T14:27:26.288Z,48.00
2018-06-24T14:29:57.616Z,48.40
2018-06-24T14:32:32.913Z,48.40
2018-06-24T14:35:05.548Z,49.40
2018-06-24T14:37:39.918Z,50.20
2018-06-24T14:40:18.085Z,50.80
2018-06-24T14:42:56.293Z,50.20
2018-06-24T14:45:29.463Z,49.20
2018-06-24T14:48:07.543Z,48.20
2018-06-24T14:50:42.796Z,48.90
2018-06-24T14:53:15.580Z,48.60
2018-06-24T14:55:50.974Z,47.60
2018-06-24T14:58:29.751Z,47.60
2018-06-24T15:01:04.388Z,48.10
2018-06-24T15:03:36.928Z,49.10
2018-06-24T15:06:15.451Z,48.30
2018-06-24T15:08:50.461Z,48.70
2018-06-24T15:11:28.725Z,48.80
2018-06-24T15:14:03.898Z,49.60
2018-06-24T15:16:36.693Z,49.80
2018-06-24T15:19:12.994Z,50.40
2018-06-24T15:21:49.747Z,50.30
2018-06-24T15:24:24.395Z,50.30
2018-06-24T15:27:02.337Z,49.60
2018-06-24T15:29:39.653Z,50.00
2018-06-24T15:32:16.320Z,50.80
2018-06-24T15:34:54.765Z,51.00
2018-06-24T15:37:28.657Z,50.60
2018-06-24T15:40:03.535Z,50.00
2018-06-24T15:45:16.220Z,50.00
2018-06-24T15:47:49.045Z,50.50
2018-06-24T15:50:23.098Z,51.60
2018-06-24T15:53:00.113Z,52.40
2018-06-24T15:55:38.490Z,51.70
2018-06-24T15:58:13.676Z,51.60
2018-06-24T16:00:50.565Z,52.40
2018-06-24T16:03:26.784Z,52.40
2018-06-24T16:05:58.532Z,53.20
2018-06-24T16:08:35.579Z,53.10
2018-06-24T16:11:13.352Z,53.30
2018-06-24T16:13:46.897Z,53.60
2018-06-24T16:16:24.059Z,55.20
2018-06-24T16:18:59.728Z,54.40
2018-06-24T16:21:45.455Z,54.00
2018-06-24T16:24:23.470Z,54.80
2018-06-24T16:27:03.812Z,54.10
2018-06-24T16:29:58.365Z,54.60
2018-06-24T16:35:21.309Z,55.20
2018-06-24T16:37:58.893Z,55.30
2018-06-24T16:40:34.606Z,56.10
2018-06-24T16:45:52.500Z,54.60
2018-06-24T16:48:27.340Z,55.40
2018-06-24T16:51:03.393Z,55.80
2018-06-24T16:56:27.677Z,55.70
2018-06-24T16:59:02.546Z,55.60
2018-06-24T17:01:40.311Z,55.60
2018-06-24T17:06:51.619Z,55.70
2018-06-24T17:09:26.959Z,55.90
2018-06-24T17:12:10.988Z,56.30
2018-06-24T17:14:46.028Z,57.60
2018-06-24T17:17:18.230Z,57.60
2018-06-24T17:20:23.454Z,58.10
2018-06-24T17:22:58.387Z,58.50
2018-06-24T17:25:38.322Z,58.50
2018-06-24T17:28:15.903Z,59.70
2018-06-24T17:30:48.573Z,59.70
2018-06-24T17:33:21.905Z,61.70
2018-06-24T17:36:04.952Z,60.30
2018-06-24T17:38:51.116Z,60.50
2018-06-24T17:41:28.190Z,60.10
2018-06-24T17:44:05.599Z,59.80
2018-06-24T17:46:39.806Z,59.70
2018-06-24T17:54:24.458Z,60.70
2018-06-24T17:56:59.210Z,61.70
2018-06-24T17:59:39.835Z,61.60
2018-06-24T18:02:14.808Z,62.10
2018-06-24T18:04:55.010Z,63.40
2018-06-24T18:10:16.516Z,62.60
2018-06-24T18:12:51.667Z,64.80
2018-06-24T18:15:24.553Z,63.20
2018-06-24T18:17:55.585Z,63.70
2018-06-24T18:20:30.412Z,62.40
2018-06-24T18:23:09.006Z,63.70
2018-06-24T18:25:45.184Z,63.90
2018-06-24T18:28:20.568Z,64.40
2018-06-24T18:30:53.621Z,64.80
2018-06-24T18:33:41.748Z,66.60
2018-06-24T18:36:20.652Z,64.40
2018-06-24T18:38:53.532Z,64.10
2018-06-24T18:41:26.178Z,63.00
2018-06-24T18:44:07.863Z,65.50
2018-06-24T18:46:53.564Z,65.70
2018-06-24T18:49:30.049Z,66.60
2018-06-24T18:52:05.024Z,66.80
2018-06-24T18:54:41.464Z,66.90
2018-06-24T18:57:19.565Z,65.70
2018-06-24T18:59:53.724Z,65.80
2018-06-24T19:02:28.983Z,63.40
2018-06-24T19:05:04.731Z,64.50
2018-06-24T19:07:42.210Z,65.20
2018-06-24T19:10:19.967Z,65.30
2018-06-24T19:12:55.305Z,65.50
2018-06-24T19:15:33.474Z,66.00
2018-06-24T19:18:08.658Z,65.70
2018-06-24T19:20:49.224Z,66.30
2018-06-24T19:23:36.112Z,65.60
2018-06-24T19:26:12.466Z,65.50
2018-06-24T19:28:48.589Z,65.40
2018-06-24T19:31:20.974Z,64.60
2018-06-24T19:34:00.496Z,64.40
2018-06-24T19:36:33.582Z,64.60
2018-06-24T19:39:12.948Z,66.20
2018-06-24T19:41:49.611Z,66.00
2018-06-24T19:44:23.839Z,65.70
2018-06-24T19:47:00.481Z,65.60
2018-06-24T19:49:33.692Z,65.40
2018-06-24T19:52:09.345Z,66.00
2018-06-24T19:54:47.731Z,66.10
2018-06-24T19:57:21.212Z,65.70
2018-06-24T19:59:56.826Z,64.50
2018-06-24T20:02:31.489Z,64.50
2018-06-24T20:05:14.738Z,68.30
2018-06-24T20:07:49.144Z,71.00
2018-06-24T20:10:27.369Z,72.60
2018-06-24T20:13:05.078Z,72.00
2018-06-24T20:15:45.342Z,71.00
2018-06-24T20:18:20.451Z,70.50
2018-06-24T20:20:56.061Z,71.30
2018-06-24T20:26:20.014Z,71.20
2018-06-24T20:28:56.074Z,72.10
2018-06-24T20:31:29.586Z,72.80
2018-06-24T20:34:11.883Z,72.90
2018-06-24T20:36:51.964Z,75.20
2018-06-24T20:39:27.200Z,76.90
2018-06-24T20:45:30.408Z,79.10
2018-06-24T20:48:16.985Z,80.10
2018-06-24T20:50:58.573Z,80.40
2018-06-24T20:53:41.298Z,79.70
2018-06-24T20:56:43.219Z,79.60
2018-06-24T21:00:39.246Z,79.80
2018-06-24T21:03:11.540Z,78.00
2018-06-24T21:05:49.668Z,78.40
2018-06-24T21:08:20.640Z,77.80
2018-06-24T21:10:58.803Z,76.90
2018-06-24T21:13:37.949Z,76.10
2018-06-24T21:16:13.700Z,75.50
2018-06-24T21:18:54.949Z,75.70
2018-06-24T21:21:44.178Z,75.20
2018-06-24T21:24:24.613Z,78.00
2018-06-24T21:27:21.836Z,76.40
2018-06-24T21:29:57.718Z,75.80
2018-06-24T21:32:41.953Z,76.00
2018-06-24T21:35:13.921Z,75.70
2018-06-24T21:37:47.561Z,74.20
2018-06-24T21:40:26.853Z,73.20
2018-06-24T21:43:02.980Z,72.40
2018-06-24T21:45:37.003Z,71.90
2018-06-24T21:48:27.405Z,71.40
2018-06-24T21:51:03.421Z,72.30
2018-06-24T21:53:39.091Z,73.20
2018-06-24T21:56:18.701Z,74.30
2018-06-24T21:58:53.491Z,74.70
2018-06-24T22:01:30.845Z,75.90
2018-06-24T22:04:07.347Z,76.30
2018-06-24T22:09:26.918Z,74.80
2018-06-24T22:12:06.344Z,74.40
2018-06-24T22:14:40.994Z,74.60
2018-06-24T22:17:15.735Z,75.40
2018-06-24T22:19:50.108Z,75.00
2018-06-24T22:22:22.572Z,74.40
2018-06-24T22:24:53.805Z,74.10
2018-06-24T22:27:28.998Z,75.10
2018-06-24T22:30:09.914Z,77.20
2018-06-24T22:32:51.550Z,78.70
2018-06-24T22:39:07.014Z,81.90
2018-06-24T22:41:40.940Z,82.50
2018-06-24T22:44:17.084Z,82.20
2018-06-24T22:46:47.587Z,83.20
2018-06-24T22:49:48.260Z,84.50
2018-06-24T22:52:20.567Z,86.20
2018-06-24T22:54:55.916Z,85.60
2018-06-24T22:57:30.685Z,85.20
2018-06-24T23:00:20.593Z,84.90
2018-06-24T23:02:50.994Z,87.00
2018-06-24T23:05:24.717Z,87.40
2018-06-24T23:07:59.179Z,87.50
2018-06-24T23:10:58.135Z,89.30
2018-06-24T23:13:30.518Z,91.00
2018-06-24T23:16:03.272Z,90.30
2018-06-24T23:18:35.291Z,90.60
2018-06-24T23:21:09.691Z,87.50
2018-06-24T23:23:41.511Z,89.10
2018-06-24T23:26:14.924Z,89.90
2018-06-24T23:28:48.463Z,88.70
2018-06-24T23:31:19.431Z,90.10
2018-06-24T23:33:52.131Z,90.80
2018-06-24T23:36:23.703Z,90.80
2018-06-24T23:38:57.042Z,90.70
2018-06-24T23:41:28.950Z,89.20
2018-06-24T23:43:59.673Z,89.80
2018-06-24T23:46:33.739Z,90.00
2018-06-24T23:49:05.125Z,90.00
2018-06-24T23:51:38.716Z,88.00
2018-06-24T23:54:10.381Z,89.10
